Tiempo atmosférico en la estación meteorológica de Chinchilla, Albacete (880 m.)



Fecha
DESCASC
Temp. máxima en grados centígrados (hora)
DESCASC
Temp. mínima en grados centígrados (hora)
DESCASC
Temp. media en grados centígrados
DESCASC
Racha de viento máxima en m/sg (hora)
DESCASC
Velocidad máxima media en intervalos de 10 minutos(hora)
DESCASC
Precipitaciones diarias en mm
DESCASC
Precipitaciones de 00:00 a 06:00 en mm
DESCASC
Precipitaciones de 06:00 a 12:00 en mm
DESCASC
Precipitaciones de 12:00 a 18:00 en mm
DESCASC
Precipitaciones de 18:00 a 24:00 en mm
DESCASC
20-10-2019 13.5 (00:20) 6.1 (23:50) 9.8 12.78 (17:20) 7.78 (17:20) 4 2.8 1.2 0 0
19-10-2019 20.2 (15:00) 11.6 (08:20) 15.9 10.83 (04:20) 6.94 (04:20) 0 0 0 0 0
18-10-2019 21.5 (15:20) 11.8 (10:30) 16.7 9.72 (16:20) 6.11 (16:00) 0 0 0 0 0
17-10-2019 -- (--) -- (--) -- -- (--) -- (--) -- -- -- -- 0
16-10-2019 -- (--) -- (--) -- -- (--) -- (--) -- -- -- -- --
15-10-2019 -- (--) -- (--) -- -- (--) -- (--) -- 0 -- -- --
14-10-2019 21.2 (15:50) 9.7 (00:00) 15.5 16.11 (20:10) 9.17 (17:00) 0.2 0 0 0.2 0
13-10-2019 27.2 (16:10) 12.2 (00:00) 19.7 12.78 (17:40) 6.94 (17:40) 0 0 0 0 0
12-10-2019 24.2 (14:20) 11.9 (00:00) 18.1 9.44 (16:20) 6.39 (17:20) 0 0 0 0 0
11-10-2019 24.5 (15:50) 13.8 (00:00) 19.2 17.22 (10:10) 6.94 (14:10) 0 0 0 0 0
10-10-2019 23.3 (16:10) 13.9 (00:00) 18.6 9.72 (12:20) 6.67 (01:20) 0 0 0 0 0
09-10-2019 28.3 (15:40) 12.4 (00:00) 20.3 7.78 (23:59) 5.83 (23:59) 0 0 0 0 0
08-10-2019 25.5 (16:40) 11.6 (00:00) 18.6 8.33 (14:50) 4.72 (12:00) 0 0 0 0 0
07-10-2019 26.2 (17:50) 11.2 (00:00) 18.7 10.83 (14:40) 6.94 (14:10) 0 0 0 0 0
06-10-2019 24.8 (17:30) 12.9 (00:00) 18.8 8.89 (15:00) 5.28 (10:50) 0 0 0 0 0
05-10-2019 26 (15:00) 13.1 (00:00) 19.6 7.78 (03:30) 5.28 (03:40) 0 0 0 0 0
04-10-2019 27.1 (16:30) 11.8 (00:00) 19.5 6.11 (14:10) 4.17 (05:30) 0 0 0 0 0
03-10-2019 22.1 (16:50) 8 (00:00) 15.1 11.67 (12:30) 6.94 (12:00) 0 0 0 0 0
02-10-2019 21.3 (17:20) 11.7 (00:00) 16.5 12.78 (14:10) 6.39 (14:40) 0 0 0 0 0
01-10-2019 25.6 (15:30) 15.1 (00:00) 20.4 11.39 (15:50) 6.39 (18:00) 0 0 0 0 0
30-09-2019 30.3 (17:30) 14.4 (00:00) 22.3 5.28 (15:30) 3.89 (21:40) 0 0 0 0 0
29-09-2019 28.4 (16:40) 12.2 (00:00) 20.3 9.17 (16:40) 4.44 (15:30) 0 0 0 0 0
28-09-2019 28.1 (14:10) 14.5 (00:00) 21.3 7.5 (16:20) 4.17 (17:00) 0 0 0 0 0
27-09-2019 27.1 (17:20) 11.6 (00:00) 19.4 6.94 (14:50) 3.89 (10:40) 0 0 0 0 0
26-09-2019 26.6 (16:40) 11.8 (00:00) 19.2 7.5 (15:00) 3.89 (14:40) 0 0 0 0 0
25-09-2019 22.6 (16:40) 13.1 (00:00) 17.9 9.72 (04:40) 5.28 (21:00) 0 0 0 0 0
24-09-2019 25.6 (17:10) 11.2 (00:00) 18.4 9.17 (17:20) 5.56 (11:50) 0 0 0 0 0
23-09-2019 21.7 (16:40) 9 (00:00) 15.4 8.61 (04:20) 5 (04:10) 0 0 0 0 0
22-09-2019 21.7 (15:50) 14.2 (00:00) 18 11.94 (16:50) 7.22 (16:50) 0.1 0.1 0 0 0

Gráficas

Temp. máximas Temp. mínimas Temp. medias Precipitaciones Rachas de viento máximas Velocidades máximas media en intervalos de 10 minutos

Datos horarios

Fecha y hora oficial Temperatura (ºC) Velocidad del viento (km/h) Dirección del viento Racha (km/h) Dirección de racha Precipitación (mm) Presión (hPa) Tendencia (hPa) Humedad (%)
2019-10-21 23:00:00 7.6 6 Sudeste 11 Sudeste 0 915.4 -0.1 78
2019-10-21 22:00:00 8 11 Sudeste 17 Sudeste 0 915.4 -0.1 74
2019-10-21 21:00:00 9.4 14 Este 18 Este 0 916 0.5 61
2019-10-21 20:00:00 11.3 6 Sudeste 16 Sudeste 0 915.5 0.2 48
2019-10-21 19:00:00 12.8 6 Este 16 Nordeste 0 915.5 -0.1 43
2019-10-21 18:00:00 15.3 2 Nordeste 13 Sudeste 0 915.5 -0.6 38
2019-10-21 17:00:00 14.3 5 Nordeste 15 Norte 0 915.3 -1.2 42
2019-10-21 16:00:00 14.7 6 Nordeste 18 Nordeste 0 915.6 -1.2 39
2019-10-21 15:00:00 15.1 3 Sudeste 15 Sudeste 0 916.1 -0.5 38
2019-10-21 14:00:00 12.6 3 Noroeste 14 Noroeste 0 916.5 0.3 46
2019-10-21 13:00:00 11.6 6 Norte 13 Noroeste 0 916.8 1.4 54
2019-10-21 12:00:00 10.2 5 Noroeste 14 Noroeste 0 916.6 2 59
2019-10-21 11:00:00 8.1 5 Norte 17 Norte 0 916.2 2.2 75
2019-10-21 10:00:00 5.4 3 Noroeste 7 Norte 0 915.4 1.3 89
2019-10-21 09:00:00 3.3 0 Calma 12 Norte 0 914.6 0.5 91
2019-10-21 08:00:00 3.1 5 Norte 10 Norte 0 914 -0.2 89
2019-10-21 07:00:00 3.6 0 Calma 14 Norte 0 914.1 -0.4 87
2019-10-21 06:00:00 4.3 7 Norte 21 Norte 0 914.1 -0.8 88
2019-10-21 05:00:00 5 11 Norte 15 Norte 0 914.2 -0.4 86
2019-10-21 04:00:00 5.8 6 Noroeste 13 Norte 0 914.5 0.1 84
2019-10-21 03:00:00 5.8 0 Calma 9 Oeste 0 914.9 0.6 82
2019-10-21 02:00:00 6.3 6 Noroeste 16 Noroeste 0 914.6 0.5 79
2019-10-21 01:00:00 6.6 4 Noroeste 8 Noroeste 0 914.4 0.8 75
2019-10-21 00:00:00 6.2 0 Calma 9 Noroeste 0 914.3 0.8 71
2019-10-20 23:00:00 7 6 Noroeste 16 Noroeste 0 914.1 1.2 68
2019-10-20 22:00:00 7.8 9 Noroeste 14 Noroeste 0 913.6 1.7 67
2019-10-20 21:00:00 8.7 9 Noroeste 26 Noroeste 0 913.5 2.3 65
2019-10-20 20:00:00 9.1 17 Noroeste 27 Noroeste 0 912.9 2.2 65
2019-10-20 19:00:00 10 17 Noroeste 39 Noroeste 0 911.9 1.6 65
2019-10-20 18:00:00 10.7 26 Noroeste 46 Oeste 0 911.2 1.1 55
2019-10-20 17:00:00 12.5 25 Noroeste 44 Noroeste 0 910.7 0.6 51
2019-10-20 16:00:00 12.2 15 Oeste 31 Oeste 0 910.3 0.4 60
2019-10-20 15:00:00 10.8 18 Oeste 39 Oeste 0 910.1 0.7 65
2019-10-20 14:00:00 9.7 16 Noroeste 27 Noroeste 0 910.1 0.2 79
2019-10-20 13:00:00 8.5 16 Noroeste 31 Noroeste 0 909.9 0.1 86
2019-10-20 12:00:00 9.3 19 Noroeste 36 Oeste 0.1 909.4 1 81
2019-10-20 11:00:00 9.3 13 Noroeste 21 Oeste 0 909.9 2 82
2019-10-20 10:00:00 9 9 Oeste 25 Oeste 0 909.8 1.1 84
2019-10-20 09:00:00 8.8 16 Noroeste 24 Oeste 0 908.4 0.7 86
2019-10-20 08:00:00 9.4 11 Noroeste 26 Oeste 0.1 907.9 0.9 90
2019-10-20 07:00:00 9.9 14 Oeste 28 Noroeste 1 908.7 1.7 93
2019-10-20 06:00:00 10.6 18 Noroeste 42 Noroeste 2.3 907.7 -0.2 94
2019-10-20 05:00:00 12.8 0 Calma -- -- 0.3 907 -0.5 87
2019-10-20 04:00:00 13 2 Sur 13 Sudeste 0.2 907 -1.2 86
2019-10-20 03:00:00 13.5 6 Sur 15 Sur 0 907.9 -0.5 84
2019-10-20 02:00:00 13.1 9 Sur 14 Sur 0 907.5 -1 84
2019-10-20 01:00:00 13 2 Sur 17 Sur 0 908.2 -0.2 81
2019-10-20 00:00:00 13.3 6 Sudeste 18 Sudeste 0 908.4 -0.4 76
2019-10-19 23:00:00 14.3 0 Calma 11 Sur 0 908.5 -0.4 66
2019-10-19 22:00:00 15.4 4 Sudoeste 10 Sur 0 908.4 -0.5 53
2019-10-19 21:00:00 16.5 5 Oeste 14 Oeste 0 908.8 -0.4 46
2019-10-19 20:00:00 17.1 5 Sudoeste 9 Sudoeste 0 908.9 -0.7 47
2019-10-19 19:00:00 18.2 3 Sur 20 Noroeste 0 908.9 -1.3 44
2019-10-19 18:00:00 18.5 11 Noroeste 26 Oeste 0 909.2 -1.5 42
2019-10-19 17:00:00 18.7 12 Noroeste 30 Oeste 0 909.6 -1.9 42
2019-10-19 16:00:00 18.7 18 Noroeste 32 Noroeste 0 910.2 -2.2 41
2019-10-19 15:00:00 20 15 Oeste 32 Oeste 0 910.7 -2.4 41
2019-10-19 14:00:00 19.8 10 Oeste 27 Oeste 0 911.5 -1.8 47
2019-10-19 13:00:00 18.6 11 Oeste 25 Sudoeste 0 912.4 -0.8 53
2019-10-19 12:00:00 17.1 11 Oeste 22 Noroeste 0 913.1 0.4 62
2019-10-19 11:00:00 14.8 10 Oeste 19 Oeste 0 913.3 1 70
2019-10-19 10:00:00 13.4 9 Sudoeste 19 Noroeste 0 913.2 0.5 81
2019-10-19 09:00:00 12.6 14 Noroeste 26 Noroeste 0 912.7 -0.1 85
2019-10-19 08:00:00 12 15 Noroeste 26 Noroeste 0 912.3 -0.5 86
2019-10-19 07:00:00 12.1 13 Noroeste 23 Noroeste 0 912.7 -0.8 85
2019-10-19 06:00:00 12.6 11 Norte 27 Noroeste 0 912.8 -1.3 84
2019-10-19 05:00:00 13 17 Noroeste 39 Noroeste 0 912.8 -1.9 81
2019-10-19 04:00:00 13.5 16 Noroeste 27 Noroeste 0 913.5 -1.6 78
2019-10-19 03:00:00 12.8 6 Noroeste 10 Noroeste 0 914.1 -1.2 73
2019-10-19 02:00:00 13.3 6 Oeste 21 Oeste 0 914.7 -0.9 69
2019-10-19 01:00:00 13.6 7 Oeste 13 Oeste 0 915.1 -0.4 60
2019-10-19 00:00:00 13.3 0 Calma -- -- 0 915.3 -0.2 54
2019-10-18 23:00:00 14.2 0 Calma -- -- 0 915.6 0 53
2019-10-18 22:00:00 14.8 0 Calma 12 Oeste 0 915.5 -0.1 56
2019-10-18 21:00:00 15.6 6 Sudoeste 17 Oeste 0 915.5 -0.3 54
2019-10-18 20:00:00 17.1 10 Oeste 20 Noroeste 0 915.6 -0.2 49
2019-10-18 19:00:00 18.8 12 Noroeste 28 Noroeste 0 915.6 -0.8 45
2019-10-18 18:00:00 20.3 15 Noroeste 30 Noroeste 0 915.8 -1.1 42
2019-10-18 17:00:00 21.1 17 Oeste 35 Noroeste 0 915.8 -2 41
2019-10-18 16:00:00 20.4 22 Noroeste 34 Noroeste 0 916.4 -1.8 42
2019-10-18 15:00:00 20.8 15 Noroeste 30 Oeste 0 916.9 -2.1 42
2019-10-18 14:00:00 19.4 17 Noroeste 30 Oeste 0 917.8 -0.3 46
2019-10-18 13:00:00 18 6 Oeste 16 Noroeste 0 918.2 0.2 49
2019-10-18 12:00:00 15.3 9 Noroeste 21 Noroeste 0 919 1 54
2019-10-18 11:00:00 12.3 9 Noroeste 17 Noroeste 0 918.1 0.2 48
2019-10-18 10:00:00 12.1 8 Noroeste 25 Noroeste 0 918 0 47
2019-10-18 09:00:00 12.8 15 Noroeste 25 Noroeste 0 918 -0.3 46
2019-10-18 08:00:00 12.7 9 Noroeste 18 Noroeste 0 917.9 -0.9 46
2019-10-18 07:00:00 12.7 13 Noroeste 22 Noroeste 0 918 -0.8 46
2019-10-18 06:00:00 12.6 15 Noroeste 22 Noroeste 0 918.3 -0.8 46
2019-10-18 05:00:00 12.6 15 Noroeste 22 Noroeste 0 918.8 -0.5 46
2019-10-18 04:00:00 12.9 13 Noroeste 24 Noroeste 0 918.8 -0.3 46
2019-10-18 03:00:00 12.8 10 Noroeste 18 Noroeste 0 919.1 0.3 47
2019-10-18 02:00:00 12.9 9 Noroeste 16 Noroeste 0 919.3 0.7 53
2019-10-18 01:00:00 12.8 7 Norte 13 Noroeste 0 919.1 1 59
2019-10-18 00:00:00 13.6 8 Norte 11 Norte 0 918.8 0.8 55
2019-10-17 23:00:00 13.5 8 Norte 12 Norte 0 918.6 0.6 51
2019-10-17 22:00:00 14.9 10 Norte 22 Noroeste 0 918.1 0.1 46
2019-10-17 21:00:00 16.8 14 Norte 28 Norte 0 918 -0.2 42
2019-10-17 20:00:00 17.8 18 Norte 31 Noroeste 0 918 -0.4 39
2019-10-17 19:00:00 18.1 18 Norte 30 Noroeste 0 918 -0.9 37
2019-10-17 18:00:00 17.9 19 Noroeste 35 Noroeste 0 918.2 -1.4 36
2019-10-17 17:00:00 18.5 18 Noroeste 34 Noroeste 0 918.4 -1.1 34
2019-10-17 16:00:00 17.6 18 Noroeste 37 Oeste 0 918.9 -- 36
2019-10-17 15:00:00 15.3 13 Noroeste 32 Norte 0 919.6 -- 42
2019-10-17 14:00:00 13.4 16 Noroeste -- -- -- 919.5 -- 46
2019-10-17 13:00:00 -- -- -- -- -- -- -- -- --
2019-10-17 12:00:00 -- -- -- -- -- -- -- -- --
2019-10-17 11:00:00 -- -- -- -- -- -- -- -- --
2019-10-17 10:00:00 -- -- -- -- -- -- -- -- --
2019-10-17 09:00:00 -- -- -- -- -- -- -- -- --
2019-10-17 08:00:00 -- -- -- -- -- -- -- -- --
2019-10-17 07:00:00 -- -- -- -- -- -- -- -- --
2019-10-17 06:00:00 -- -- -- -- -- -- -- -- --
2019-10-17 05:00:00 -- -- -- -- -- -- -- -- --
2019-10-17 04:00:00 -- -- -- -- -- -- -- -- --
2019-10-17 03:00:00 -- -- -- -- -- -- -- -- --
2019-10-17 02:00:00 -- -- -- -- -- -- -- -- --
2019-10-17 01:00:00 -- -- -- -- -- -- -- -- --
2019-10-17 00:00:00 -- -- -- -- -- -- -- -- --
2019-10-16 23:00:00 -- -- -- -- -- -- -- -- --
2019-10-16 22:00:00 -- -- -- -- -- -- -- -- --
2019-10-16 21:00:00 -- -- -- -- -- -- -- -- --
2019-10-16 20:00:00 -- -- -- -- -- -- -- -- --
2019-10-16 19:00:00 -- -- -- -- -- -- -- -- --
2019-10-16 18:00:00 -- -- -- -- -- -- -- -- --
2019-10-16 17:00:00 -- -- -- -- -- -- -- -- --
2019-10-16 16:00:00 -- -- -- -- -- -- -- -- --
2019-10-16 15:00:00 -- -- -- -- -- -- -- -- --
2019-10-16 14:00:00 -- -- -- -- -- -- -- -- --
2019-10-16 13:00:00 -- -- -- -- -- -- -- -- --
2019-10-16 12:00:00 -- -- -- -- -- -- -- -- --
2019-10-16 11:00:00 -- -- -- -- -- -- -- -- --
2019-10-16 10:00:00 -- -- -- -- -- -- -- -- --
2019-10-16 09:00:00 -- -- -- -- -- -- -- -- --
2019-10-16 08:00:00 -- -- -- -- -- -- -- -- --
2019-10-16 07:00:00 -- -- -- -- -- -- -- -- --
2019-10-16 06:00:00 -- -- -- -- -- -- -- -- --
2019-10-16 05:00:00 -- -- -- -- -- -- -- -- --
2019-10-16 04:00:00 -- -- -- -- -- -- -- -- --
2019-10-16 03:00:00 -- -- -- -- -- -- -- -- --
2019-10-16 02:00:00 -- -- -- -- -- -- -- -- --
2019-10-16 01:00:00 -- -- -- -- -- -- -- -- --
2019-10-16 00:00:00 -- -- -- -- -- -- -- -- --
2019-10-15 23:00:00 -- -- -- -- -- -- -- -- --
2019-10-15 22:00:00 -- -- -- -- -- -- -- -- --
2019-10-15 21:00:00 -- -- -- -- -- -- -- -- --
2019-10-15 20:00:00 -- -- -- -- -- -- -- -- --
2019-10-15 19:00:00 -- -- -- -- -- -- -- -- --
2019-10-15 18:00:00 -- -- -- -- -- -- -- -- --
2019-10-15 17:00:00 -- -- -- -- -- -- -- -- --
2019-10-15 16:00:00 -- -- -- -- -- -- -- -- --
2019-10-15 15:00:00 -- -- -- -- -- -- -- -- --
2019-10-15 14:00:00 -- -- -- -- -- -- -- -- --
2019-10-15 13:00:00 -- -- -- -- -- -- -- -- --
2019-10-15 12:00:00 -- -- -- -- -- -- -- -- --
2019-10-15 11:00:00 -- -- -- -- -- -- -- -- --
2019-10-15 10:00:00 -- -- -- -- -- -- -- -- --
2019-10-15 09:00:00 5.4 18 Noroeste 33 Noroeste 0 917.3 1.4 91
2019-10-15 08:00:00 5.6 15 Noroeste 29 Noroeste 0 916.9 0.4 91
2019-10-15 07:00:00 6.2 16 Noroeste 38 Noroeste 0 916.6 0.1 88
2019-10-15 06:00:00 6.8 21 Noroeste 37 Noroeste 0 915.9 -0.5 84
2019-10-15 05:00:00 7.7 21 Noroeste 39 Noroeste 0 916.5 0.1 81
2019-10-15 04:00:00 8.2 22 Noroeste 34 Noroeste 0 916.5 0.5 76
2019-10-15 03:00:00 8.6 19 Noroeste 33 Noroeste 0 916.4 0.3 78
2019-10-15 02:00:00 9 20 Noroeste 29 Noroeste 0 916.4 0.6 75
2019-10-15 01:00:00 9.3 17 Noroeste 40 Noroeste 0 916 0.5 73
2019-10-15 00:00:00 9.7 22 Noroeste 35 Noroeste 0 916.1 1.9 78
2019-10-14 23:00:00 10.4 19 Norte 39 Noroeste 0 915.8 2 72
2019-10-14 22:00:00 10.7 33 Norte 54 Noroeste 0 915.5 1.9 66
2019-10-14 21:00:00 14.8 26 Oeste 58 Oeste 0 914.2 0.7 44
2019-10-14 20:00:00 15.8 29 Oeste 53 Oeste 0 913.8 0.3 41
2019-10-14 19:00:00 18 27 Oeste 53 Oeste 0 913.6 0 37
2019-10-14 18:00:00 19.3 27 Oeste 54 Oeste 0 913.5 -0.3 36
2019-10-14 17:00:00 20 33 Oeste 50 Oeste 0 913.5 -1.5 38
2019-10-14 16:00:00 20.1 24 Oeste 46 Oeste 0 913.6 -2.2 41
2019-10-14 15:00:00 20.4 19 Oeste 33 Oeste 0 913.8 -2 44
2019-10-14 14:00:00 17.7 6 Oeste 34 Noroeste 0.2 915 -0.8 66
2019-10-14 13:00:00 16.2 7 Norte 15 Norte 0 915.8 0.4 67
2019-10-14 12:00:00 15.4 9 Sudeste 18 Sudeste 0 915.8 0.8 75
2019-10-14 11:00:00 15.3 10 Sudeste 18 Sudeste 0 915.8 1.9 75
2019-10-14 10:00:00 14.9 4 Sudeste 14 Oeste 0 915.4 1.7 84
2019-10-14 09:00:00 13.2 4 Sudoeste 20 Sudeste 0 915 1 84
2019-10-14 08:00:00 12.4 9 Sudeste 18 Sudeste 0 913.9 -0.5 83
2019-10-14 07:00:00 12.6 14 Sudeste 24 Sudeste 0 913.7 -1.2 87
2019-10-14 06:00:00 12.4 18 Este 29 Este 0 914 -1.8 92
2019-10-14 05:00:00 13.1 18 Este 27 Este 0 914.4 -2.1 92
2019-10-14 04:00:00 13.7 19 Este 34 Este 0 914.9 -1.8 92
2019-10-14 03:00:00 14 23 Sudeste 30 Sudeste 0 915.8 -1.2 92
2019-10-14 02:00:00 13.5 20 Este 25 Este 0 916.5 -0.6 89
2019-10-14 01:00:00 14.4 17 Sudeste 20 Sudeste 0 916.7 -0.3 86
2019-10-14 00:00:00 14.7 15 Este 22 Sudeste 0 917 0 82
2019-10-13 23:00:00 15.9 15 Sudeste 26 Sudeste 0 917.1 0.4 74
2019-10-13 22:00:00 17.3 8 Sudeste 19 Sudeste 0 917 0.7 66
2019-10-13 21:00:00 18.4 5 Sudeste 14 Sur 0 917 0.8 58
2019-10-13 20:00:00 20.6 6 Sur 22 Oeste 0 916.7 0.5 39
2019-10-13 19:00:00 24.2 15 Oeste 32 Oeste 0 916.3 0.2 21
2019-10-13 18:00:00 25.4 21 Oeste 46 Oeste 0 916.2 -0.3 20
2019-10-13 17:00:00 26.3 19 Sudoeste 31 Sudoeste 0 916.2 -0.9 25
2019-10-13 16:00:00 26.7 10 Sur 26 Sudoeste 0 916.1 -1.7 29
2019-10-13 15:00:00 26.4 13 Sudoeste 26 Sudoeste 0 916.5 -1.9 29
2019-10-13 14:00:00 25.7 10 Sur 24 Sur 0 917.1 -1 34
2019-10-13 13:00:00 23.6 12 Sur 21 Sur 0 917.8 -0.2 44
2019-10-13 12:00:00 21.3 11 Sur 18 Sur 0 918.4 1 56
2019-10-13 11:00:00 18.6 10 Sudeste 17 Sudeste 0 918.1 1 71
2019-10-13 10:00:00 15.3 9 Sudeste 15 Este 0 918 0.9 88
2019-10-13 09:00:00 13 13 Este 17 Este 0 917.4 0.4 92
2019-10-13 08:00:00 12.3 14 Este 17 Sudeste 0 917.1 -0.1 91
2019-10-13 07:00:00 13.1 14 Sudeste 17 Sudeste 0 917.1 -0.3 92
2019-10-13 06:00:00 13.8 14 Sudeste 17 Sudeste 0 917 -0.8 92
2019-10-13 05:00:00 14.1 14 Sudeste 22 Sudeste 0 917.2 -0.8 91
2019-10-13 04:00:00 14 15 Sudeste 22 Sudeste 0 917.4 -0.5 91
2019-10-13 03:00:00 14.3 17 Sudeste 22 Sudeste 0 917.8 -0.3 91
2019-10-13 02:00:00 15 15 Sudeste 21 Sudeste 0 918 -0.1 91
2019-10-13 01:00:00 14.5 16 Sudeste 23 Sudeste 0 917.9 0.2 91
2019-10-13 00:00:00 15 10 Sudeste 27 Sudeste 0 918.1 0.6 89
2019-10-12 23:00:00 16 17 Sudeste 26 Sudeste 0 918.1 0.9 86
2019-10-12 22:00:00 16.7 19 Sudeste 29 Sudeste 0 917.7 0.9 82
2019-10-12 21:00:00 17.1 18 Sudeste 25 Sudeste 0 917.5 0.4 79
2019-10-12 20:00:00 17.9 17 Sudeste 27 Sudeste 0 917.2 0.1 69
2019-10-12 19:00:00 20.1 19 Sudeste 30 Sur 0 916.8 -0.4 53
2019-10-12 18:00:00 22.1 18 Sudeste 31 Sur 0 917.1 -0.6 43
2019-10-12 17:00:00 22.4 21 Sur 34 Sudeste 0 917.1 -1.3 43
2019-10-12 16:00:00 22.6 21 Sudeste 29 Sudeste 0 917.2 -2.1 41
2019-10-12 15:00:00 22.9 19 Sudeste 31 Sudeste 0 917.7 -1.8 40
2019-10-12 14:00:00 23.3 18 Sudeste 31 Sudeste 0 918.4 -1.2 41
2019-10-12 13:00:00 21.9 19 Sudeste 31 Sudeste 0 919.3 0.2 51
2019-10-12 12:00:00 19 18 Sudeste 26 Sudeste 0 919.5 1.2 55
2019-10-12 11:00:00 17.2 15 Sudeste 22 Sudeste 0 919.6 1.3 69
2019-10-12 10:00:00 14.7 15 Sudeste 24 Este 0 919.1 0.7 82
2019-10-12 09:00:00 13 17 Este 22 Este 0 918.3 0 90
2019-10-12 08:00:00 12.2 13 Este 19 Sudeste 0 918.3 0.1 92
2019-10-12 07:00:00 12.1 8 Sudeste 19 Sudeste 0 918.4 -0.5 92
2019-10-12 06:00:00 12.3 15 Este 19 Este 0 918.3 -0.9 92
2019-10-12 05:00:00 12.8 11 Sudeste 22 Sudeste 0 918.2 -1.6 91
2019-10-12 04:00:00 13 14 Sudeste 18 Sudeste 0 918.9 -1 91
2019-10-12 03:00:00 13.1 16 Este 22 Sudeste 0 919.2 -0.8 86
2019-10-12 02:00:00 13.6 14 Sudeste 22 Sudeste 0 919.8 -0.5 79
2019-10-12 01:00:00 14.2 16 Sudeste 23 Este 0 919.9 0 78
2019-10-12 00:00:00 14.8 14 Sudeste 19 Sudeste 0 920 0.6 80
2019-10-11 23:00:00 15.2 13 Sudeste 19 Sudeste 0 920.3 1.1 79
2019-10-11 22:00:00 15.9 10 Sudeste 23 Sur 0 919.9 0.9 75
2019-10-11 21:00:00 16.8 14 Sudeste 28 Sur 0 919.4 0.6 69
2019-10-11 20:00:00 18.1 8 Sur 24 Sur 0 919.2 0 62
2019-10-11 19:00:00 20.5 16 Sur 28 Sur 0 919 -0.5 48
2019-10-11 18:00:00 22.5 20 Sur 34 Sur 0 918.8 -1.1 39
2019-10-11 17:00:00 22.8 22 Sur 36 Sur 0 919.2 -1.6 37
2019-10-11 16:00:00 23.9 23 Sur 37 Sur 0 919.5 -2.2 34
2019-10-11 15:00:00 23.1 24 Sur 36 Sur 0 919.9 -2.2 32
2019-10-11 14:00:00 22.7 23 Sur 33 Sur 0 920.8 -1.6 31
2019-10-11 13:00:00 21.7 20 Sudeste 31 Sur 0 921.7 -0.3 37
2019-10-11 12:00:00 19.1 19 Sur 27 Sudeste 0 922.1 0.8 52
2019-10-11 11:00:00 17.2 19 Sudeste 62 Sur 0 922.4 1.6 64
2019-10-11 10:00:00 14.3 19 Sur 26 Sur 0 922 1.1 81
2019-10-11 09:00:00 14.4 13 Sur 27 Sur 0 921.3 0.4 84
2019-10-11 08:00:00 14.2 14 Sur 29 Sur 0 920.8 -0.3 85
2019-10-11 07:00:00 14.2 21 Sur 30 Sur 0 920.9 -0.2 84
2019-10-11 06:00:00 14.2 17 Sur 28 Sur 0 920.9 -0.4 85
2019-10-11 05:00:00 14.2 17 Sur 30 Sur 0 921.1 -0.4 85
2019-10-11 04:00:00 14.3 22 Sur 29 Sur 0 921.1 -0.4 85
2019-10-11 03:00:00 14.3 20 Sur 30 Sur 0 921.3 -0.2 86
2019-10-11 02:00:00 14.1 19 Sudeste 28 Sudeste 0 921.5 0.3 89
2019-10-11 01:00:00 13.9 18 Sudeste 30 Sudeste 0 921.5 0.4 90
2019-10-11 00:00:00 14 17 Sudeste 29 Sudeste 0 921.5 0.9 90
2019-10-10 23:00:00 14.3 21 Sudeste 27 Sudeste 0 921.2 0.9 89
2019-10-10 22:00:00 15 19 Sudeste 23 Sudeste 0 921.1 1.1 82
2019-10-10 21:00:00 16.5 17 Sudeste 27 Sur 0 920.6 0.7 71
2019-10-10 20:00:00 17.8 18 Sur 30 Sur 0 920.3 0.5 60
2019-10-10 19:00:00 19.8 23 Sur 32 Sur 0 920 0.1 52
2019-10-10 18:00:00 21.4 23 Sur 32 Sur 0 919.9 -0.3 47
2019-10-10 17:00:00 22.4 21 Sur 32 Sur 0 919.8 -0.9 43
2019-10-10 16:00:00 23.2 18 Sur 33 Sur 0 919.9 -1.5 43
2019-10-10 15:00:00 23 19 Sur 34 Sur 0 920.2 -1.3 43
2019-10-10 14:00:00 21.9 20 Sur 32 Sur 0 920.7 -0.9 45
2019-10-10 13:00:00 20.6 21 Sur 35 Sur 0 921.4 0.2 54
2019-10-10 12:00:00 18.6 23 Sur -- -- -- 921.5 1 64
2019-10-10 11:00:00 16.8 22 Sudeste 33 Sudeste 0 921.6 1.6 75
2019-10-10 10:00:00 15.4 19 Sudeste 30 Sudeste 0 921.2 1.7 82
2019-10-10 09:00:00 14.8 17 Sudeste 26 Sudeste 0 920.5 1.1 85
2019-10-10 08:00:00 14.6 18 Sudeste 30 Sudeste 0 920 0.7 85
2019-10-10 07:00:00 14.5 22 Sudeste 31 Sudeste 0 919.5 0.2 83
2019-10-10 06:00:00 14.5 21 Sudeste 33 Sudeste 0 919.4 0 83
2019-10-10 05:00:00 14.5 20 Sudeste 30 Sudeste 0 919.3 0.2 83
2019-10-10 04:00:00 14.9 16 Sudeste 23 Sudeste 0 919.3 0.1 85
2019-10-10 03:00:00 15.1 16 Sudeste 28 Sudeste 0 919.4 0.4 85
2019-10-10 02:00:00 15.8 21 Sudeste 34 Sudeste 0 919.1 0.4 85
2019-10-10 01:00:00 16.2 22 Sudeste 30 Sudeste 0 919.2 1 85
2019-10-10 00:00:00 16.5 21 Sudeste 28 Sudeste 0 919 1.4 85
2019-10-09 23:00:00 16.2 15 Sudeste 20 Sudeste 0 918.7 1.5 72
2019-10-09 22:00:00 17.8 15 Sudeste 18 Sudeste 0 918.2 1.7 62
2019-10-09 21:00:00 19.3 8 Sudeste 14 Sur 0 917.6 1.6 53
2019-10-09 20:00:00 21.3 6 Sur 19 Sudoeste 0 917.2 1.1 45
2019-10-09 19:00:00 24.6 12 Sudoeste 17 Sudoeste 0 916.5 0 35
2019-10-09 18:00:00 26.8 8 Noroeste 19 Noroeste 0 916 -0.4 26
2019-10-09 17:00:00 26.9 9 Noroeste 18 Noroeste 0 916.1 -0.9 26
2019-10-09 16:00:00 27.4 4 Oeste 20 Noroeste 0 916.5 -1.4 25
2019-10-09 15:00:00 28.2 7 Sudoeste 17 Sudoeste 0 916.4 -1.8 26
2019-10-09 14:00:00 27 6 Sudoeste 14 Sudoeste 0 917 -1.3 30
2019-10-09 13:00:00 23.2 8 Norte 19 Norte 0 917.9 0 37
2019-10-09 12:00:00 22.3 6 Noroeste 14 Oeste 0 918.2 0.8 38
2019-10-09 11:00:00 19.5 5 Norte 11 Noroeste 0 918.3 1.2 53
2019-10-09 10:00:00 17.2 4 Sudeste 11 Sudeste 0 917.9 0.9 83
2019-10-09 09:00:00 13.1 0 Calma 12 Sudeste 0 917.4 0.5 91
2019-10-09 08:00:00 12.7 0 Calma 8 Sudeste 0 917.1 -0.1 91
2019-10-09 07:00:00 13.1 3 Este 9 Este 0 917 -0.4 91
2019-10-09 06:00:00 13.5 6 Sudeste 11 Sudeste 0 916.9 -1 91
2019-10-09 05:00:00 13.4 4 Sudeste 14 Sudeste 0 917.2 -1.1 91
2019-10-09 04:00:00 13.4 11 Este 15 Sudeste 0 917.4 -1.1 90
2019-10-09 03:00:00 13.6 12 Sudeste 17 Este 0 917.9 -0.7 89
2019-10-09 02:00:00 14 10 Sudeste 15 Sudeste 0 918.3 -0.2 88
2019-10-09 01:00:00 14.6 7 Sur 16 Sudeste 0 918.5 0.1 86
2019-10-09 00:00:00 14.5 10 Sudeste 16 Sudeste 0 918.6 0.2 85
2019-10-08 23:00:00 15.1 9 Sudeste 13 Sudeste 0 918.5 0.4 79
2019-10-08 22:00:00 16.3 6 Sur 19 Sur 0 918.4 0.6 72
2019-10-08 21:00:00 17.5 12 Sur 19 Sur 0 918.4 0.3 64
2019-10-08 20:00:00 18.8 9 Sur 18 Sur 0 918.1 0 55
2019-10-08 19:00:00 21.7 13 Sur 21 Sur 0 917.8 -0.7 47
2019-10-08 18:00:00 23.6 14 Sur 23 Sur 0 918.1 -0.5 42
2019-10-08 17:00:00 24.7 13 Sur 25 Sudoeste 0 918.1 -1.1 40
2019-10-08 16:00:00 24.8 16 Sur 26 Sur 0 918.5 -1.7 41
2019-10-08 15:00:00 25 14 Sur 30 Sur 0 918.6 -2.3 41
2019-10-08 14:00:00 23.6 14 Sur 23 Sur 0 919.2 -1.9 45
2019-10-08 13:00:00 22.1 14 Sur 24 Sur 0 920.2 -0.5 49
2019-10-08 12:00:00 20.1 17 Sur 24 Sur 0 920.9 0.9 59
2019-10-08 11:00:00 15.9 16 Sur 23 Sur 0 921.1 1.6 80
2019-10-08 10:00:00 13.8 13 Sur 19 Sur 0 920.7 1.5 91
2019-10-08 09:00:00 12.1 4 Sudeste 17 Sudeste 0 920 1.1 89
2019-10-08 08:00:00 12.1 12 Este 20 Este 0 919.5 0.4 80
2019-10-08 07:00:00 12.4 7 Sudeste 15 Este 0 919.2 0.2 76
2019-10-08 06:00:00 13 2 Noroeste 9 Sudeste 0 918.9 -0.3 75
2019-10-08 05:00:00 12.8 0 Calma 7 Sur 0 919.1 0.1 78
2019-10-08 04:00:00 13.8 4 Este 7 Este 0 919 -0.1 78
2019-10-08 03:00:00 13.8 6 Este 12 Este 0 919.2 -0.3 83
2019-10-08 02:00:00 14.9 4 Este 15 Este 0 919 -0.2 78
2019-10-08 01:00:00 15.5 5 Este 17 Este 0 919.1 0.5 72
2019-10-08 00:00:00 16.1 12 Este 18 Este 0 919.5 1.5 63
2019-10-07 23:00:00 17.3 10 Sudeste 17 Sudeste 0 919.2 1.5 44
2019-10-07 22:00:00 19.2 8 Norte 14 Nordeste 0 918.6 1.4 40
2019-10-07 21:00:00 20.5 8 Noroeste 18 Norte 0 918 1.1 38
2019-10-07 20:00:00 21.7 9 Norte 15 Noroeste 0 917.7 0.8 36
2019-10-07 19:00:00 24.7 8 Norte 20 Norte 0 917.2 0.2 32
2019-10-07 18:00:00 25.4 14 Norte 26 Norte 0 916.9 -0.3 31
2019-10-07 17:00:00 25.4 17 Norte 29 Noroeste 0 916.9 -0.8 31
2019-10-07 16:00:00 24.9 15 Norte 36 Noroeste 0 917 -1.2 32
2019-10-07 15:00:00 24.6 23 Norte 39 Norte 0 917.2 -1.7 32
2019-10-07 14:00:00 23.1 24 Norte 36 Noroeste 0 917.7 -1.1 32
2019-10-07 13:00:00 21.2 17 Norte 37 Noroeste 0 918.2 -0.2 38
2019-10-07 12:00:00 19.3 19 Noroeste 33 Norte 0 918.9 1.1 43
2019-10-07 11:00:00 17.1 19 Noroeste 37 Norte 0 918.8 1.6 49
2019-10-07 10:00:00 15.5 21 Noroeste 33 Norte 0 918.4 1.1 53
2019-10-07 09:00:00 12.7 9 Norte 23 Norte 0 917.8 0.5 59
2019-10-07 08:00:00 11.3 12 Norte 16 Norte 0 917.2 -0.3 59
2019-10-07 07:00:00 11.6 9 Norte 14 Norte 0 917.3 -0.6 56
2019-10-07 06:00:00 12.1 9 Norte 16 Norte 0 917.3 -1.1 54
2019-10-07 05:00:00 12.9 9 Norte 14 Norte 0 917.5 -1.2 51
2019-10-07 04:00:00 13.7 9 Norte 15 Norte 0 917.9 -0.9 49
2019-10-07 03:00:00 14.4 10 Norte 17 Norte 0 918.4 -0.8 47
2019-10-07 02:00:00 15.5 9 Noroeste 14 Noroeste 0 918.7 -0.5 46
2019-10-07 01:00:00 16.3 9 Norte 14 Norte 0 918.8 -0.1 46
2019-10-07 00:00:00 16.7 9 Norte 15 Norte 0 919.2 0.7 45
2019-10-06 23:00:00 17.2 7 Norte 12 Norte 0 919.2 1.3 44
2019-10-06 22:00:00 18.2 10 Norte 15 Norte 0 918.9 1 43
2019-10-06 21:00:00 18.5 11 Norte 18 Norte 0 918.5 0.6 41
2019-10-06 20:00:00 19.9 11 Norte 23 Noroeste 0 917.9 -0.3 38
2019-10-06 19:00:00 22.5 14 Noroeste 26 Noroeste 0 917.9 -0.6 35
2019-10-06 18:00:00 23.9 15 Noroeste 32 Norte 0 917.9 -1.1 34
2019-10-06 17:00:00 24 16 Noroeste 29 Noroeste 0 918.2 -1.2 36
2019-10-06 16:00:00 23.2 13 Noroeste 27 Noroeste 0 918.5 -1.5 37
2019-10-06 15:00:00 23.2 18 Norte 32 Norte 0 919 -0.8 38
2019-10-06 14:00:00 23 12 Noroeste 30 Noroeste 0 919.4 -0.3 40
2019-10-06 13:00:00 20.8 12 Noroeste 28 Norte 0 920 0.6 46
2019-10-06 12:00:00 19.1 17 Norte 26 Norte 0 919.8 1.3 48
2019-10-06 11:00:00 18.1 15 Norte 31 Norte 0 919.7 1.3 51
2019-10-06 10:00:00 17.2 7 Norte 13 Norte 0 919.4 1.2 54
2019-10-06 09:00:00 14 3 Norte 11 Norte 0 918.5 0.6 57
2019-10-06 08:00:00 13.4 2 Norte 17 Norte 0 918.4 0.7 56
2019-10-06 07:00:00 13.6 0 Calma 10 Norte 0 918.2 0.3 55
2019-10-06 06:00:00 13 4 Noroeste 8 Norte 0 917.9 0 54
2019-10-06 05:00:00 13.8 5 Norte 15 Noroeste 0 917.7 -0.2 53
2019-10-06 04:00:00 14.5 7 Norte 15 Noroeste 0 917.9 0 51
2019-10-06 03:00:00 14.9 3 Nordeste 6 Nordeste 0 917.9 -0.3 53
2019-10-06 02:00:00 15 0 Calma 6 Nordeste 0 917.9 -0.2 53
2019-10-06 01:00:00 16.1 0 Calma 5 Nordeste 0 917.9 0.2 51
2019-10-06 00:00:00 17 0 Calma -- -- 0 918.2 1.1 46
2019-10-05 23:00:00 17.6 0 Calma 3 Norte 0 918.1 1.3 43
2019-10-05 22:00:00 17.6 0 Calma 12 Norte 0 917.7 1.6 43
2019-10-05 21:00:00 18.7 12 Norte 15 Norte 0 917.1 1.3 41
2019-10-05 20:00:00 19.7 10 Norte 16 Norte 0 916.8 0.9 39
2019-10-05 19:00:00 24.3 6 Norte 18 Noroeste 0 916.1 -0.1 33
2019-10-05 18:00:00 25.9 8 Noroeste 21 Noroeste 0 915.8 -0.6 32
2019-10-05 17:00:00 25.6 6 Noroeste 23 Norte 0 915.9 -1.1 34
2019-10-05 16:00:00 25 11 Noroeste 21 Oeste 0 916.2 -1.5 35
2019-10-05 15:00:00 25.2 8 Oeste 18 Sudoeste 0 916.4 -1.3 34
2019-10-05 14:00:00 23.7 5 Oeste 14 Noroeste 0 917 -0.7 37
2019-10-05 13:00:00 22.2 7 Norte 15 Norte 0 917.7 0.3 41
2019-10-05 12:00:00 20.7 8 Noroeste 20 Noroeste 0 917.7 0.9 44
2019-10-05 11:00:00 18.6 10 Norte 18 Nordeste 0 917.7 1.4 46
2019-10-05 10:00:00 17.5 0 Calma 14 Norte 0 917.4 1.4 51
2019-10-05 09:00:00 14 4 Norte 15 Nordeste 0 916.8 0.6 53
2019-10-05 08:00:00 13.3 12 Norte 15 Norte 0 916.3 -0.2 52
2019-10-05 07:00:00 13.4 10 Norte 17 Norte 0 916 -0.5 50
2019-10-05 06:00:00 13.4 10 Norte 14 Norte 0 916.2 -0.7 50
2019-10-05 05:00:00 14.2 5 Norte 18 Noroeste 0 916.5 -0.2 46
2019-10-05 04:00:00 16 14 Noroeste 28 Noroeste 0 916.5 -0.2 43
2019-10-05 03:00:00 17 17 Noroeste 24 Noroeste 0 916.9 0 42
2019-10-05 02:00:00 15.2 0 Calma -- -- 0 916.7 -0.5 49
2019-10-05 01:00:00 15.7 0 Calma 4 Sudeste 0 916.7 -0.4 48
2019-10-05 00:00:00 16.3 2 Este 7 Sudeste 0 916.9 0.1 46
2019-10-04 23:00:00 17 6 Sudeste 9 Sudeste 0 917.2 1 43
2019-10-04 22:00:00 18.1 2 Sudoeste 8 Oeste 0 917.1 1.3 39
2019-10-04 21:00:00 19 6 Norte 10 Sudoeste 0 916.8 0.8 36
2019-10-04 20:00:00 21.9 4 Sudoeste 9 Sudoeste 0 916.2 0.2 32
2019-10-04 19:00:00 25.4 3 Noroeste 19 Noroeste 0 915.8 -0.6 28
2019-10-04 18:00:00 25.8 6 Oeste 20 Sudoeste 0 916 -1.3 27
2019-10-04 17:00:00 26.4 7 Oeste 22 Noroeste 0 916 -2 27
2019-10-04 16:00:00 26 4 Oeste 21 Sudoeste 0 916.4 -2.4 27
2019-10-04 15:00:00 24.7 8 Oeste 22 Sudoeste 0 917.3 -2 29
2019-10-04 14:00:00 23.4 4 Oeste 17 Noroeste 0 918 -1.5 33
2019-10-04 13:00:00 21.7 8 Noroeste 17 Noroeste 0 918.8 -0.1 37
2019-10-04 12:00:00 19.6 7 Norte 21 Noroeste 0 919.3 0.8 42
2019-10-04 11:00:00 17.1 10 Norte 16 Noroeste 0 919.5 1.4 49
2019-10-04 10:00:00 15.6 7 Norte 14 Noroeste 0 918.9 1.1 54
2019-10-04 09:00:00 12.7 6 Norte 10 Noroeste 0 918.5 0.5 60
2019-10-04 08:00:00 11.9 0 Calma 14 Norte 0 918.1 0.1 59
2019-10-04 07:00:00 12.8 12 Norte 18 Norte 0 917.8 -0.4 59
2019-10-04 06:00:00 12.7 13 Norte 21 Norte 0 918 -0.5 58
2019-10-04 05:00:00 12.2 13 Norte 21 Norte 0 918 -0.6 59
2019-10-04 04:00:00 12.5 13 Norte 20 Norte 0 918.2 -0.3 56
2019-10-04 03:00:00 13.5 13 Norte 21 Noroeste 0 918.5 -0.3 51
2019-10-04 02:00:00 13.6 12 Noroeste 19 Noroeste 0 918.6 0.2 47
2019-10-04 01:00:00 12.7 9 Norte 12 Norte 0 918.5 -0.1 46
2019-10-04 00:00:00 14.2 7 Norte 23 Norte 0 918.8 0.7 40
2019-10-03 23:00:00 16.1 13 Norte 22 Norte 0 918.4 0.4 37
2019-10-03 22:00:00 16.5 11 Norte 28 Noroeste 0 918.6 1 36
2019-10-03 21:00:00 17.5 19 Norte 30 Noroeste 0 918.1 0.9 36
2019-10-03 20:00:00 18 15 Norte 26 Norte 0 918 0.7 34
2019-10-03 19:00:00 20.2 17 Noroeste 27 Norte 0 917.6 -0.1 30
2019-10-03 18:00:00 21.4 17 Norte 36 Noroeste 0 917.2 -0.9 30
2019-10-03 17:00:00 21.8 17 Noroeste 36 Oeste 0 917.3 -1.2 30
2019-10-03 16:00:00 21 22 Noroeste 40 Noroeste 0 917.7 -1.2 32
2019-10-03 15:00:00 19.8 19 Noroeste 41 Noroeste 0 918.1 -0.8 35
2019-10-03 14:00:00 19.3 21 Noroeste 41 Norte 0 918.5 -0.2 38
2019-10-03 13:00:00 17.8 22 Norte 42 Norte 0 918.9 0.6 41
2019-10-03 12:00:00 15.5 25 Norte 36 Norte 0 918.9 1.5 49
2019-10-03 11:00:00 13 21 Noroeste 32 Noroeste 0 918.7 1.3 58
2019-10-03 10:00:00 10.9 14 Norte 26 Norte 0 918.3 1.1 64
2019-10-03 09:00:00 9.4 13 Noroeste 24 Noroeste 0 917.4 0.2 69
2019-10-03 08:00:00 8.3 8 Norte 13 Noroeste 0 917.4 0.2 69
2019-10-03 07:00:00 8.7 2 Norte 10 Norte 0 917.2 -0.2 66
2019-10-03 06:00:00 9.2 9 Norte 11 Norte 0 917.2 -0.7 64
2019-10-03 05:00:00 9.4 2 Noroeste 6 Norte 0 917.2 -0.9 61
2019-10-03 04:00:00 9.9 0 Calma 3 Noroeste 0 917.4 -0.7 57
2019-10-03 03:00:00 10.6 0 Calma 6 Sudeste 0 917.9 -0.2 54
2019-10-03 02:00:00 11.1 3 Este 14 Norte 0 918.1 -0.1 53
2019-10-03 01:00:00 13.1 12 Norte 18 Norte 0 918.1 0.1 49
2019-10-03 00:00:00 12.5 8 Norte 15 Norte 0 918.1 0.8 45
2019-10-02 23:00:00 14 10 Noroeste 23 Noroeste 0 918.2 1.2 40
2019-10-02 22:00:00 15.6 14 Noroeste 25 Noroeste 0 918 1.4 37
2019-10-02 21:00:00 16.2 15 Noroeste 25 Noroeste 0 917.3 1.2 35
2019-10-02 20:00:00 17.5 15 Noroeste 31 Noroeste 0 917 1.1 33
2019-10-02 19:00:00 19.1 17 Noroeste 37 Noroeste 0 916.6 0.5 30
2019-10-02 18:00:00 20.7 17 Noroeste 42 Noroeste 0 916.1 -0.4 29
2019-10-02 17:00:00 21 19 Noroeste 40 Noroeste 0 915.9 -0.6 30
2019-10-02 16:00:00 20.2 18 Norte 42 Noroeste 0 916.1 -0.9 35
2019-10-02 15:00:00 19.4 22 Noroeste 46 Norte 0 916.5 -0.7 39
2019-10-02 14:00:00 19.1 21 Noroeste 43 Norte 0 916.5 -0.6 39
2019-10-02 13:00:00 17.9 20 Noroeste 36 Noroeste 0 917 0.2 46
2019-10-02 12:00:00 16.4 15 Noroeste 26 Noroeste 0 917.2 1.2 55
2019-10-02 11:00:00 14.6 13 Noroeste 26 Noroeste 0 917.1 1.4 63
2019-10-02 10:00:00 12.4 11 Noroeste 25 Norte 0 916.8 1.2 70
2019-10-02 09:00:00 12 14 Noroeste 23 Oeste 0 916 0.7 70
2019-10-02 08:00:00 11.8 14 Noroeste 25 Noroeste 0 915.7 0.7 69
2019-10-02 07:00:00 12.2 11 Noroeste 19 Noroeste 0 915.6 0.3 68
2019-10-02 06:00:00 12.7 10 Noroeste 22 Norte 0 915.3 -0.3 65
2019-10-02 05:00:00 12.9 11 Noroeste 18 Noroeste 0 915 -0.5 63
2019-10-02 04:00:00 13.3 9 Noroeste 18 Noroeste 0 915.3 0 60
2019-10-02 03:00:00 14 10 Noroeste 23 Oeste 0 915.6 0.6 57
2019-10-02 02:00:00 15.2 14 Noroeste 27 Noroeste 0 915.5 0.5 53
2019-10-02 01:00:00 16.1 14 Noroeste 24 Noroeste 0 915.3 0.6 50
2019-10-02 00:00:00 16.5 12 Noroeste 25 Noroeste 0 915 1 42
2019-10-01 23:00:00 17.4 14 Noroeste 25 Noroeste 0 915 1.3 32
2019-10-01 22:00:00 18.5 12 Noroeste 32 Noroeste 0 914.7 1.4 30
2019-10-01 21:00:00 20.1 21 Noroeste 34 Oeste 0 914 0.8 28
2019-10-01 20:00:00 21.5 17 Noroeste 33 Noroeste 0 913.7 0.6 27
2019-10-01 19:00:00 23.8 20 Noroeste 37 Noroeste 0 913.3 0 24
2019-10-01 18:00:00 24.1 23 Noroeste 40 Noroeste 0 913.2 -0.6 25
2019-10-01 17:00:00 24.6 22 Noroeste 37 Norte 0 913.1 -1.4 26
2019-10-01 16:00:00 24.8 19 Noroeste 41 Noroeste 0 913.3 -1.7 25
2019-10-01 15:00:00 24.7 17 Noroeste 33 Oeste 0 913.8 -1.8 26
2019-10-01 14:00:00 24.1 16 Noroeste 34 Noroeste 0 914.5 -1.2 27
2019-10-01 13:00:00 22.8 13 Noroeste 34 Norte 0 915 -0.5 35
2019-10-01 12:00:00 21.7 12 Noroeste 28 Noroeste 0 915.6 0.9 40
2019-10-01 11:00:00 20.3 19 Noroeste 32 Noroeste 0 915.7 1 42
2019-10-01 10:00:00 19.1 12 Noroeste 22 Noroeste 0 915.5 1 44
2019-10-01 09:00:00 18.8 13 Noroeste 26 Noroeste 0 914.7 -0.1 43
2019-10-01 08:00:00 17.7 15 Norte 24 Noroeste 0 914.7 -0.5 42
2019-10-01 07:00:00 17.8 13 Noroeste 21 Noroeste 0 914.5 -1.1 43
2019-10-01 06:00:00 16.4 9 Norte 15 Norte 0 914.8 -1.6 53
2019-10-01 05:00:00 15.5 4 Noroeste 7 Oeste 0 915.2 -1.5 63
2019-10-01 04:00:00 15.4 4 Este 10 Este 0 915.6 -1.3 80
2019-10-01 03:00:00 16.5 5 Este 7 Este 0 916.4 -1.1 81
2019-10-01 02:00:00 17.3 0 Calma 7 Sudeste 0 916.7 -0.6 77
2019-10-01 01:00:00 17.6 6 Sudeste 10 Este 0 916.9 -0.3 72
2019-10-01 00:00:00 18.5 4 Sur 12 Sur 0 917.5 0.6 66
2019-09-30 23:00:00 18.8 7 Sudeste 15 Sudeste 0 917.3 0.9 59
2019-09-30 22:00:00 19.1 13 Sudeste 17 Sudeste 0 917.2 1.2 51
2019-09-30 21:00:00 21.1 8 Sur 15 Sudeste 0 916.9 1.1 40
2019-09-30 20:00:00 23.7 6 Sudoeste 13 Sur 0 916.4 0.2 29
2019-09-30 19:00:00 27.7 8 Oeste 17 Sudoeste 0 916 -0.7 22
2019-09-30 18:00:00 29.7 3 Sudoeste 16 Sudoeste 0 915.8 -1.4 20
2019-09-30 17:00:00 29.9 7 Oeste 15 Oeste 0 916.2 -1.8 21
2019-09-30 16:00:00 29.2 3 Noroeste 19 Oeste 0 916.7 -1.8 22
2019-09-30 15:00:00 29.5 8 Oeste 17 Sur 0 917.2 -1.7 23
2019-09-30 14:00:00 27.5 2 Noroeste 14 Noroeste 0 918 -1.1 25
2019-09-30 13:00:00 28.1 6 Sur 12 Oeste 0 918.5 -0.6 24
2019-09-30 12:00:00 24.8 2 Norte 11 Norte 0 918.9 0.3 31
2019-09-30 11:00:00 22.3 5 Norte 9 Norte 0 919.1 0.7 35
2019-09-30 10:00:00 19.7 6 Norte 14 Norte 0 919.1 1 38
2019-09-30 09:00:00 17 6 Norte 10 Norte 0 918.6 0.5 40
2019-09-30 08:00:00 15.3 0 Calma -- -- 0 918.4 0.1 43
2019-09-30 07:00:00 15 0 Calma -- -- 0 918.1 -0.4 44
2019-09-30 06:00:00 16.3 0 Calma 3 Sudoeste 0 918.1 -0.7 41
2019-09-30 05:00:00 16.7 0 Calma 9 Norte 0 918.3 -0.8 42
2019-09-30 04:00:00 16.9 0 Calma 3 Norte 0 918.5 -0.3 43
2019-09-30 03:00:00 16.8 3 Este 6 Este 0 918.8 -0.4 39
2019-09-30 02:00:00 17.2 3 Sudeste 5 Sudeste 0 919.1 -0.1 36
2019-09-30 01:00:00 17.7 5 Este 9 Este 0 918.8 -0.2 34
2019-09-30 00:00:00 19.2 0 Calma 4 Nordeste 0 919.2 0.9 30
2019-09-29 23:00:00 18.8 3 Sudeste 9 Este 0 919.2 1.1 30
2019-09-29 22:00:00 20 0 Calma 9 Norte 0 919 1.2 28
2019-09-29 21:00:00 20.8 10 Norte 14 Norte 0 918.3 0.5 26
2019-09-29 20:00:00 22.2 10 Norte 19 Norte 0 918.1 0 25
2019-09-29 19:00:00 25.8 12 Norte 23 Norte 0 917.8 -0.6 20
2019-09-29 18:00:00 26.7 14 Norte 30 Noroeste 0 917.8 -0.9 19
2019-09-29 17:00:00 27.2 13 Norte 33 Oeste 0 918.1 -1.5 20
2019-09-29 16:00:00 27.4 13 Noroeste 32 Noroeste 0 918.4 -1.6 23
2019-09-29 15:00:00 27.2 15 Oeste 28 Oeste 0 918.7 -1.6 23
2019-09-29 14:00:00 25.9 10 Noroeste 25 Oeste 0 919.6 -1 26
2019-09-29 13:00:00 24.5 10 Noroeste 21 Noroeste 0 920 0.1 29
2019-09-29 12:00:00 23.2 8 Oeste 14 Oeste 0 920.3 0.9 37
2019-09-29 11:00:00 19.3 5 Sur 8 Sudeste 0 920.6 1.4 65
2019-09-29 10:00:00 15.3 3 Sudeste -- -- -- 919.9 0.8 91
2019-09-29 09:00:00 12.6 5 Este 11 Sudeste 0 919.4 0.3 91
2019-09-29 08:00:00 12.5 5 Este 14 Este 0 919.2 0 92
2019-09-29 07:00:00 13.7 7 Sudeste 13 Este 0 919.1 -0.5 92
2019-09-29 06:00:00 13.7 9 Sudeste 17 Sudeste 0 919.1 -0.7 92
2019-09-29 05:00:00 13.7 13 Sudeste 19 Sudeste 0 919.2 -0.9 89
2019-09-29 04:00:00 13.9 14 Sudeste 18 Este 0 919.6 -0.8 85
2019-09-29 03:00:00 14.4 12 Sudeste 17 Sudeste 0 919.8 -0.7 83
2019-09-29 02:00:00 14.5 12 Sudeste 17 Sudeste 0 920.1 -0.3 82
2019-09-29 01:00:00 14.8 13 Sudeste 17 Sudeste 0 920.4 0.1 82
2019-09-29 00:00:00 15.7 12 Sudeste 15 Sudeste 0 920.5 0.5 79
2019-09-28 23:00:00 16.3 12 Sudeste 16 Sudeste 0 920.4 0.6 73
2019-09-28 22:00:00 17.9 10 Sur 21 Sudeste 0 920.3 0.9 62
2019-09-28 21:00:00 19 10 Sur 21 Sur 0 920 0.6 56
2019-09-28 20:00:00 21.3 13 Sur 23 Sur 0 919.8 0.3 50
2019-09-28 19:00:00 24.6 13 Sur 23 Sur 0 919.4 -0.4 35
2019-09-28 18:00:00 26.3 13 Sur 24 Sur 0 919.4 -0.7 31
2019-09-28 17:00:00 27 15 Sur 27 Sur 0 919.5 -1.2 32
2019-09-28 16:00:00 27.7 11 Sur 23 Sur 0 919.8 -1.3 30
2019-09-28 15:00:00 27.7 12 Sur 24 Sur 0 920.1 -1.1 29
2019-09-28 14:00:00 28 10 Sudoeste 21 Sudoeste 0 920.7 -1 28
2019-09-28 13:00:00 26.9 6 Sur 14 Sudoeste 0 921.1 -0.1 29
2019-09-28 12:00:00 25.3 5 Sur 11 Sur 0 921.2 0.6 39
2019-09-28 11:00:00 22 3 Sur 6 Sur 0 921.7 1.7 47
2019-09-28 10:00:00 18.9 3 Sudeste 5 Este 0 921.2 1.5 62
2019-09-28 09:00:00 15.4 2 Noroeste 8 Norte 0 920.6 0.9 64
2019-09-28 08:00:00 14.6 0 Calma -- -- 0 920 0.3 68
2019-09-28 07:00:00 15.4 0 Calma 5 Norte 0 919.7 -0.1 81
2019-09-28 06:00:00 15.5 0 Calma 5 Norte 0 919.7 -0.4 80
2019-09-28 05:00:00 16.3 3 Sudeste 6 Sudeste 0 919.7 -0.5 77
2019-09-28 04:00:00 16.4 3 Sudeste 8 Sudeste 0 919.8 -0.6 70
2019-09-28 03:00:00 16.8 5 Sudeste 8 Sudeste 0 920.1 -0.3 61
2019-09-28 02:00:00 16.8 5 Sudeste 9 Sudeste 0 920.2 0.2 52
2019-09-28 01:00:00 17.5 3 Sudeste 8 Sudeste 0 920.4 0.6 43
2019-09-28 00:00:00 16.5 7 Sudeste 10 Este 0 920.4 1.2 43
2019-09-27 23:00:00 17.5 4 Nordeste -- -- -- 920 1.2 39
2019-09-27 22:00:00 17.9 4 Nordeste 11 Norte 0 919.8 1.3 39
2019-09-27 21:00:00 19.6 8 Norte 12 Norte 0 919.2 1 36
2019-09-27 20:00:00 21.1 8 Norte 18 Norte 0 918.8 0.6 34
2019-09-27 19:00:00 24.4 11 Norte 18 Norte 0 918.5 0 27
2019-09-27 18:00:00 25.8 10 Norte 22 Norte 0 918.2 -1 26
2019-09-27 17:00:00 26.2 5 Norte 22 Noroeste 0 918.2 -1.5 26
2019-09-27 16:00:00 25.6 6 Noroeste 24 Norte 0 918.5 -1.4 26
2019-09-27 15:00:00 25.6 5 Noroeste 25 Oeste 0 919.2 -1.2 28
2019-09-27 14:00:00 24.2 11 Noroeste 20 Noroeste 0 919.7 -0.9 30
2019-09-27 13:00:00 23.5 7 Noroeste 18 Noroeste 0 919.9 -0.4 33
2019-09-27 12:00:00 21.6 10 Norte 21 Noroeste 0 920.4 0.5 36
2019-09-27 11:00:00 20 12 Noroeste 24 Noroeste 0 920.6 1.2 39
2019-09-27 10:00:00 18.2 5 Noroeste 13 Noroeste 0 920.3 1 47
2019-09-27 09:00:00 14.3 4 Norte 7 Noroeste 0 919.9 0.6 69
2019-09-27 08:00:00 11.9 3 Norte 6 Norte 0 919.4 0.1 91
2019-09-27 07:00:00 12.4 0 Calma 8 Este 0 919.3 -0.2 91
2019-09-27 06:00:00 13.5 8 Este 13 Este 0 919.3 -0.6 91
2019-09-27 05:00:00 14.6 7 Sudeste 11 Este 0 919.3 -0.9 90
2019-09-27 04:00:00 14.8 6 Sudeste 10 Sudeste 0 919.5 -0.9 89
2019-09-27 03:00:00 15.2 6 Sudeste 10 Sudeste 0 919.9 -0.7 88
2019-09-27 02:00:00 15.8 6 Sudeste 12 Sur 0 920.2 -0.2 86
2019-09-27 01:00:00 16.1 7 Sur 11 Sudeste 0 920.4 0.4 85
2019-09-27 00:00:00 16.8 6 Sudeste 12 Sudeste 0 920.6 1.1 81
2019-09-26 23:00:00 17.4 6 Sur 13 Sur 0 920.4 1.3 75
2019-09-26 22:00:00 18.5 2 Sur 10 Sudoeste 0 920 1.5 65
2019-09-26 21:00:00 19.4 6 Sur 14 Sudoeste 0 919.5 1 56
2019-09-26 20:00:00 21.5 10 Sudoeste 15 Sudoeste 0 919.1 0.3 46
2019-09-26 19:00:00 24.9 9 Sudoeste 14 Sudoeste 0 918.5 -0.5 36
2019-09-26 18:00:00 26.1 4 Sur 17 Sudoeste 0 918.5 -0.7 32
2019-09-26 17:00:00 26.6 11 Sudoeste 23 Sudoeste 0 918.8 -1 32
2019-09-26 16:00:00 26.2 6 Sur 22 Sur 0 919 -1.3 32
2019-09-26 15:00:00 26.1 11 Sudoeste 27 Sudoeste 0 919.2 -1.6 34
2019-09-26 14:00:00 25.3 10 Sur 22 Sudoeste 0 919.8 -1.2 36
2019-09-26 13:00:00 24.5 11 Sur 22 Sur 0 920.3 -0.2 38
2019-09-26 12:00:00 22.8 4 Sudoeste 11 Sudoeste 0 920.8 1.1 42
2019-09-26 11:00:00 20.9 6 Sur 9 Sur 0 921 1.8 45
2019-09-26 10:00:00 18.3 3 Sudeste 4 Sudeste 0 920.5 1.6 55
2019-09-26 09:00:00 13.7 0 Calma -- -- 0 919.7 0.9 65
2019-09-26 08:00:00 11.8 0 Calma -- -- 0 919.2 0.6 65
2019-09-26 07:00:00 12.7 0 Calma -- -- 0 918.9 0.3 63
2019-09-26 06:00:00 12.4 0 Calma -- -- 0 918.8 0.1 61
2019-09-26 05:00:00 13.2 0 Calma -- -- 0 918.6 -0.3 59
2019-09-26 04:00:00 14.1 0 Calma -- -- 0 918.6 -0.3 56
2019-09-26 03:00:00 14.2 0 Calma -- -- 0 918.7 -0.3 56
2019-09-26 02:00:00 14.3 0 Calma 7 Noroeste 0 918.9 0.1 55
2019-09-26 01:00:00 14.8 0 Calma 6 Nordeste 0 918.9 0.3 54
2019-09-26 00:00:00 14.9 3 Sur 10 Norte 0 919 1.3 53
2019-09-25 23:00:00 15.3 6 Norte 14 Norte 0 918.8 1.4 51
2019-09-25 22:00:00 16.7 12 Norte 27 Norte 0 918.6 1.4 47
2019-09-25 21:00:00 16.9 19 Norte 24 Norte 0 917.7 0.7 46
2019-09-25 20:00:00 18.6 13 Norte 22 Norte 0 917.4 0.5 41
2019-09-25 19:00:00 20.8 15 Norte 26 Norte 0 917.2 0.1 39
2019-09-25 18:00:00 21.5 15 Norte 29 Noroeste 0 917 -0.4 39
2019-09-25 17:00:00 21.9 14 Norte 30 Norte 0 916.9 -1.1 42
2019-09-25 16:00:00 21.5 15 Noroeste 30 Noroeste 0 917.1 -1.3 44
2019-09-25 15:00:00 21.6 12 Noroeste 30 Noroeste 0 917.4 -1.4 46
2019-09-25 14:00:00 20.1 15 Noroeste 29 Noroeste 0 918 -0.5 50
2019-09-25 13:00:00 19.4 14 Noroeste 31 Noroeste 0 918.4 0.3 56
2019-09-25 12:00:00 17.9 17 Noroeste 30 Oeste 0 918.8 1 63
2019-09-25 11:00:00 17.2 13 Noroeste 21 Noroeste 0 918.5 1.3 72
2019-09-25 10:00:00 15.4 13 Noroeste 23 Noroeste 0 918.1 0.9 80
2019-09-25 09:00:00 14.7 10 Noroeste 24 Noroeste 0 917.8 0.9 82
2019-09-25 08:00:00 13.8 12 Noroeste 22 Noroeste 0 917.2 0.3 82
2019-09-25 07:00:00 13.5 6 Noroeste 18 Norte 0 917.2 -0.1 75
2019-09-25 06:00:00 13.8 4 Noroeste 12 Noroeste 0 916.9 -0.7 71
2019-09-25 05:00:00 14.4 8 Noroeste 35 Noroeste 0 916.9 -0.8 63
2019-09-25 04:00:00 14.3 12 Noroeste 23 Noroeste 0 917.3 -0.7 59
2019-09-25 03:00:00 15 13 Noroeste 21 Noroeste 0 917.6 -0.6 53
2019-09-25 02:00:00 15.7 14 Noroeste 21 Noroeste 0 917.7 -0.5 48
2019-09-25 01:00:00 16.9 13 Noroeste 25 Noroeste 0 918 0 43
2019-09-25 00:00:00 18.2 17 Noroeste 25 Oeste 0 918.2 0.3 40
2019-09-24 23:00:00 18.1 10 Noroeste 22 Norte 0 918.2 0.6 38
2019-09-24 22:00:00 19.5 15 Noroeste 26 Noroeste 0 918 0.6 35
2019-09-24 21:00:00 19.2 12 Norte 19 Norte 0 917.9 0.5 34
2019-09-24 20:00:00 21 14 Norte 23 Noroeste 0 917.6 -0.1 31
2019-09-24 19:00:00 24.4 15 Noroeste 33 Noroeste 0 917.4 -0.8 27
2019-09-24 18:00:00 25.2 15 Noroeste 33 Noroeste 0 917.4 -1.4 28
2019-09-24 17:00:00 25.4 17 Noroeste 30 Noroeste 0 917.7 -1.9 29
2019-09-24 16:00:00 24.7 17 Noroeste 28 Oeste 0 918.2 -2.2 31
2019-09-24 15:00:00 23.5 15 Noroeste 32 Noroeste 0 918.8 -1.9 33
2019-09-24 14:00:00 22.6 18 Noroeste 33 Noroeste 0 919.6 -1.5 36
2019-09-24 13:00:00 20.6 17 Noroeste 30 Noroeste 0 920.4 0 43
2019-09-24 12:00:00 18.5 18 Noroeste 31 Noroeste 0 920.7 1 48
2019-09-24 11:00:00 17.5 15 Noroeste 28 Oeste 0 921.1 1.6 49
2019-09-24 10:00:00 15.9 9 Noroeste 17 Norte 0 920.4 1.3 55
2019-09-24 09:00:00 12.9 6 Norte 10 Noroeste 0 919.7 0.4 69
2019-09-24 08:00:00 11.4 2 Norte 6 Norte 0 919.5 0.1 69
2019-09-24 07:00:00 12.1 0 Calma 8 Norte 0 919.1 -0.5 68
2019-09-24 06:00:00 12.6 4 Norte 6 Noroeste 0 919.3 -0.8 69
2019-09-24 05:00:00 13.1 5 Norte 7 Norte 0 919.4 -1.1 65
2019-09-24 04:00:00 13 0 Calma 4 Sudeste 0 919.6 -1.2 63
2019-09-24 03:00:00 13.2 3 Norte 9 Norte 0 920.1 -1 62
2019-09-24 02:00:00 13.5 7 Norte 10 Norte 0 920.5 -0.5 61
2019-09-24 01:00:00 13.8 0 Calma 6 Sudoeste 0 920.8 -0.3 61
2019-09-24 00:00:00 14.7 5 Norte 18 Norte 0 921.1 0.4 56
2019-09-23 23:00:00 14.8 12 Norte 16 Norte 0 921 0.7 57
2019-09-23 22:00:00 14.9 6 Norte 10 Norte 0 921.1 1.2 55
2019-09-23 21:00:00 15.9 8 Norte 11 Norte 0 920.7 0.7 51
2019-09-23 20:00:00 17.5 6 Norte 13 Norte 0 920.3 0.6 45
2019-09-23 19:00:00 19.4 8 Norte 16 Noroeste 0 919.9 -0.1 37
2019-09-23 18:00:00 20.2 8 Noroeste 22 Noroeste 0 920 -0.2 35
2019-09-23 17:00:00 21.4 6 Noroeste 16 Norte 0 919.7 -1 36
2019-09-23 16:00:00 20.5 8 Noroeste 21 Noroeste 0 920 -1.1 35
2019-09-23 15:00:00 19.8 9 Norte 22 Norte 0 920.2 -1.4 39
2019-09-23 14:00:00 18.7 5 Noroeste 16 Norte 0 920.7 -0.8 44
2019-09-23 13:00:00 18.2 7 Noroeste 20 Norte 0 921.1 0.3 49
2019-09-23 12:00:00 17 9 Noroeste 17 Oeste 0 921.6 1.7 52
2019-09-23 11:00:00 15.8 9 Sudoeste 16 Sudoeste 0 921.5 1.9 63
2019-09-23 10:00:00 12.6 0 Calma 6 Sudoeste 0 920.8 1.7 75
2019-09-23 09:00:00 10.2 0 Calma 8 Sudeste 0 919.9 1 85
2019-09-23 08:00:00 9 3 Norte 5 Norte 0 919.6 1.5 84
2019-09-23 07:00:00 9.7 0 Calma 6 Norte 0 919.1 0.8 80
2019-09-23 06:00:00 10.3 3 Norte 12 Norte 0 918.9 0.3 75
2019-09-23 05:00:00 11.5 11 Norte 31 Noroeste 0 918.1 -0.3 71
2019-09-23 04:00:00 12 15 Noroeste 25 Norte 0 918.3 -0.3 69
2019-09-23 03:00:00 12.2 13 Noroeste 21 Noroeste 0 918.6 0 69
2019-09-23 02:00:00 12.6 14 Noroeste 20 Noroeste 0 918.4 0.2 66
2019-09-23 01:00:00 13.3 14 Noroeste 25 Noroeste 0 918.6 0.9 65
2019-09-23 00:00:00 14.4 14 Noroeste 21 Noroeste 0 918.6 1.7 63
2019-09-22 23:00:00 15.3 12 Noroeste 30 Noroeste 0 918.2 1.9 59
2019-09-22 22:00:00 15.6 16 Noroeste 30 Noroeste 0 917.7 1.6 66
2019-09-22 21:00:00 16.4 14 Noroeste 29 Noroeste 0 916.9 1.4 64
2019-09-22 20:00:00 18.4 16 Oeste 36 Oeste 0 916.3 0.9 59
2019-09-22 19:00:00 19.4 24 Oeste 43 Noroeste 0 916.1 0.7 53
2019-09-22 18:00:00 19.7 26 Noroeste 42 Oeste 0 915.5 0 50
2019-09-22 17:00:00 21.2 26 Oeste 43 Noroeste 0 915.4 -0.4 49
2019-09-22 16:00:00 21 19 Noroeste 37 Noroeste 0 915.4 -0.5 51
2019-09-22 15:00:00 21 23 Noroeste 36 Noroeste 0 915.5 -0.8 52
2019-09-22 14:00:00 20.4 21 Noroeste 36 Oeste 0 915.8 -0.4 56
2019-09-22 13:00:00 19.6 20 Noroeste 31 Oeste 0 915.9 0.2 59
2019-09-22 12:00:00 17.8 13 Noroeste 28 Noroeste 0 916.3 1.2 65
2019-09-22 11:00:00 17.5 13 Noroeste 25 Oeste 0 916.2 1.3 69
2019-09-22 10:00:00 16.6 8 Noroeste 21 Noroeste 0 915.7 1.1 75
2019-09-22 09:00:00 14.9 13 Noroeste 25 Norte 0 915.1 0.7 83
2019-09-22 08:00:00 14.2 9 Noroeste 21 Noroeste 0 914.9 0.4 83
2019-09-22 07:00:00 14.7 13 Noroeste 28 Noroeste 0 914.6 0.2 82
2019-09-22 06:00:00 15.1 15 Noroeste 26 Norte 0 914.4 -0.6 83
2019-09-22 05:00:00 15.4 13 Noroeste 23 Noroeste 0.1 914.5 -0.6 86
2019-09-22 04:00:00 15.7 0 Calma 9 Oeste 0 914.4 -0.8 82
2019-09-22 03:00:00 16.2 6 Oeste 15 Noroeste 0 915 -0.5 79
2019-09-22 02:00:00 16.7 10 Noroeste 16 Noroeste 0 915.1 -0.2 79
2019-09-22 01:00:00 16.9 0 Calma 5 Noroeste 0 915.2 0.2 78
2019-09-22 00:00:00 17.4 0 Calma 9 Oeste 0 915.5 1.1 72